Weather at Rörkärr Airfield

Public forecast

Using degrees Celsius for public forecast. Weather courtesy of forecast.io.

Closest aviation weather report (METAR) to Rörkärr Airfield

Closest report is Trollhättan-Vänersborg Airport, 18.2 nm (33.7 km) E.

2024/05/24 00:20 (retrieved 12 minutes ago)

ESGT 240020Z AUTO 09004KT 030V130 9999 FEW057/// OVC086/// 16/12 Q1016

Closest aviation forecast (TAF) to Rörkärr Airfield

Closest forecast is Leeuwarden Air Base, 369.0 nm (683.4 km) SW.

2024/05/23 21:03 (retrieved 3 hours ago)

TAF TAF EHLW 232037Z 2321/2409 VRB02KT CAVOK BECMG 2322/2401 3500 BR MIFG PROB40 TEMPO 2401/2405 1500 BCFG BECMG 2405/2407 13005KT 9999 NSW